N123PC RPLC-RPLC
Flight info
| Callsign | N123PC |
|---|---|
| Flight time | N/A |
| Altitude | 4500 |
| Route | RPLB DCT RPLL DCT RPUX |
| Aircraft | S22T/L-SDGRY/S |
Departure
| Time | 2026-05-08 07:33 |
|---|---|
| Airport | Clark International Airport / Clark Air Base (RPLC) |
Arrival
| Time | N/A |
|---|---|
| Airport | Clark International Airport / Clark Air Base (RPLC) |
| Time | Latitude | Longitude | Altitude | Speed | Heading |
|---|---|---|---|---|---|
| 2026-05-08 07:15 | 15.19181 | 120.54833 | 430 ft | 0 kts | 66° |
| 2026-05-08 07:17 | 15.19181 | 120.54834 | 430 ft | 2 kts | 69° |
| 2026-05-08 07:18 | 15.19161 | 120.54864 | 428 ft | 9 kts | 159° |
| 2026-05-08 07:18 | 15.19108 | 120.54890 | 430 ft | 11 kts | 158° |
| 2026-05-08 07:18 | 15.19046 | 120.54923 | 430 ft | 11 kts | 148° |
| 2026-05-08 07:18 | 15.19040 | 120.54926 | 426 ft | 1 kts | 154° |
| 2026-05-08 07:19 | 15.19016 | 120.54935 | 431 ft | 2 kts | 160° |
| 2026-05-08 07:19 | 15.18992 | 120.54945 | 431 ft | 2 kts | 152° |
| 2026-05-08 07:19 | 15.18966 | 120.54958 | 431 ft | 0 kts | 159° |
| 2026-05-08 07:19 | 15.18961 | 120.54961 | 431 ft | 2 kts | 152° |
| 2026-05-08 07:20 | 15.18959 | 120.54961 | 431 ft | 0 kts | 153° |
| 2026-05-08 07:24 | 15.18937 | 120.54978 | 431 ft | 8 kts | 109° |
| 2026-05-08 07:24 | 15.18958 | 120.55053 | 424 ft | 13 kts | 63° |
| 2026-05-08 07:24 | 15.19002 | 120.55153 | 431 ft | 17 kts | 66° |
| 2026-05-08 07:24 | 15.19019 | 120.55251 | 431 ft | 15 kts | 160° |
| 2026-05-08 07:25 | 15.18908 | 120.55217 | 431 ft | 19 kts | 197° |
| 2026-05-08 07:25 | 15.18811 | 120.55181 | 424 ft | 11 kts | 197° |
| 2026-05-08 07:25 | 15.18720 | 120.55176 | 431 ft | 1 kts | 110° |
| 2026-05-08 07:26 | 15.18712 | 120.55201 | 431 ft | 7 kts | 109° |
| 2026-05-08 07:26 | 15.18686 | 120.55267 | 431 ft | 12 kts | 112° |
| 2026-05-08 07:26 | 15.18652 | 120.55360 | 425 ft | 15 kts | 110° |
| 2026-05-08 07:26 | 15.18611 | 120.55470 | 431 ft | 17 kts | 114° |
| 2026-05-08 07:27 | 15.18619 | 120.55522 | 425 ft | 11 kts | 24° |
| 2026-05-08 07:27 | 15.18709 | 120.55557 | 431 ft | 17 kts | 19° |
| 2026-05-08 07:27 | 15.18826 | 120.55605 | 431 ft | 19 kts | 24° |
| 2026-05-08 07:27 | 15.18946 | 120.55658 | 431 ft | 20 kts | 55° |
| 2026-05-08 07:28 | 15.18926 | 120.55775 | 427 ft | 17 kts | 111° |
| 2026-05-08 07:28 | 15.18882 | 120.55898 | 427 ft | 19 kts | 109° |
| 2026-05-08 07:28 | 15.18980 | 120.55968 | 428 ft | 20 kts | 21° |
| 2026-05-08 07:28 | 15.19105 | 120.56024 | 431 ft | 16 kts | 55° |
| 2026-05-08 07:29 | 15.19089 | 120.56129 | 431 ft | 15 kts | 60° |
| 2026-05-08 07:29 | 15.19191 | 120.56189 | 426 ft | 18 kts | 64° |
| 2026-05-08 07:29 | 15.19156 | 120.56309 | 427 ft | 7 kts | 111° |
| 2026-05-08 07:29 | 15.19145 | 120.56338 | 430 ft | 0 kts | 111° |
| 2026-05-08 07:30 | 15.19144 | 120.56339 | 430 ft | 0 kts | 111° |
| 2026-05-08 07:30 | 15.19142 | 120.56345 | 426 ft | 6 kts | 110° |
| 2026-05-08 07:30 | 15.19123 | 120.56411 | 430 ft | 12 kts | 80° |
| 2026-05-08 07:30 | 15.19116 | 120.56449 | 428 ft | 11 kts | 223° |
| 2026-05-08 07:31 | 15.19099 | 120.56441 | 430 ft | 0 kts | 200° |
| 2026-05-08 07:32 | 15.19044 | 120.56420 | 431 ft | 38 kts | 202° |
| 2026-05-08 07:33 | 15.18582 | 120.56239 | 454 ft | 94 kts | 201° |
| 2026-05-08 07:33 | 15.17959 | 120.55988 | 733 ft | 96 kts | 198° |
| 2026-05-08 07:33 | 15.17359 | 120.55749 | 1118 ft | 88 kts | 200° |
| 2026-05-08 07:33 | 15.16765 | 120.55627 | 1405 ft | 92 kts | 184° |
| 2026-05-08 07:34 | 15.16163 | 120.55325 | 1694 ft | 92 kts | 195° |
| 2026-05-08 07:34 | 15.15619 | 120.55122 | 2066 ft | 96 kts | 209° |
| 2026-05-08 07:34 | 15.15025 | 120.54768 | 2329 ft | 100 kts | 201° |
| 2026-05-08 07:34 | 15.14392 | 120.54442 | 2405 ft | 107 kts | 203° |
| 2026-05-08 07:35 | 15.13768 | 120.54076 | 2420 ft | 103 kts | 199° |
| 2026-05-08 07:35 | 15.13123 | 120.53729 | 2452 ft | 101 kts | 195° |
| 2026-05-08 07:35 | 15.12451 | 120.53433 | 2540 ft | 112 kts | 198° |
| 2026-05-08 07:35 | 15.11964 | 120.53219 | 2559 ft | 117 kts | 196° |
| 2026-05-08 07:36 | 15.11048 | 120.52780 | 2516 ft | 117 kts | 200° |
| 2026-05-08 07:36 | 15.10296 | 120.52411 | 2515 ft | 122 kts | 200° |
| 2026-05-08 07:36 | 15.09510 | 120.52025 | 2505 ft | 124 kts | 200° |
| 2026-05-08 07:36 | 15.08719 | 120.51637 | 2495 ft | 126 kts | 200° |
| 2026-05-08 07:37 | 15.07920 | 120.51244 | 2506 ft | 130 kts | 200° |
| 2026-05-08 07:37 | 15.07098 | 120.50841 | 2500 ft | 130 kts | 200° |
| 2026-05-08 07:37 | 15.06290 | 120.50428 | 2520 ft | 130 kts | 200° |
| 2026-05-08 07:37 | 15.05451 | 120.50021 | 2503 ft | 135 kts | 199° |
| 2026-05-08 07:38 | 15.04595 | 120.49614 | 2512 ft | 136 kts | 200° |
| 2026-05-08 07:38 | 15.03720 | 120.49215 | 2510 ft | 139 kts | 200° |
| 2026-05-08 07:38 | 15.02830 | 120.48796 | 2507 ft | 139 kts | 200° |
| 2026-05-08 07:38 | 15.01936 | 120.48378 | 2502 ft | 143 kts | 200° |
| 2026-05-08 07:39 | 15.01030 | 120.47952 | 2505 ft | 142 kts | 201° |
| 2026-05-08 07:39 | 15.00136 | 120.47528 | 2506 ft | 142 kts | 199° |
| 2026-05-08 07:39 | 14.99217 | 120.47115 | 2501 ft | 145 kts | 199° |
| 2026-05-08 07:39 | 14.98313 | 120.46691 | 2491 ft | 140 kts | 199° |
| 2026-05-08 07:40 | 14.97415 | 120.46278 | 2619 ft | 143 kts | 198° |
| 2026-05-08 07:40 | 14.96541 | 120.45858 | 3071 ft | 138 kts | 211° |
| 2026-05-08 07:40 | 14.95914 | 120.45146 | 3568 ft | 129 kts | 226° |
| 2026-05-08 07:40 | 14.95310 | 120.44464 | 3942 ft | 129 kts | 222° |
| 2026-05-08 07:41 | 14.94685 | 120.43778 | 4270 ft | 133 kts | 223° |
| 2026-05-08 07:41 | 14.94057 | 120.43084 | 4463 ft | 131 kts | 224° |
| 2026-05-08 07:41 | 14.93447 | 120.42389 | 4463 ft | 129 kts | 224° |
| 2026-05-08 07:41 | 14.92859 | 120.41739 | 4460 ft | 122 kts | 223° |
| 2026-05-08 07:42 | 14.92264 | 120.41097 | 4466 ft | 122 kts | 221° |
| 2026-05-08 07:42 | 14.91870 | 120.40671 | 4469 ft | 125 kts | 221° |
| 2026-05-08 07:42 | 14.91246 | 120.40002 | 4481 ft | 131 kts | 223° |
| 2026-05-08 07:42 | 14.90610 | 120.39308 | 4485 ft | 135 kts | 222° |
| 2026-05-08 07:43 | 14.89959 | 120.38595 | 4479 ft | 134 kts | 221° |
| 2026-05-08 07:43 | 14.89313 | 120.37890 | 4480 ft | 136 kts | 223° |
| 2026-05-08 07:43 | 14.88671 | 120.37187 | 4415 ft | 131 kts | 222° |
| 2026-05-08 07:43 | 14.88060 | 120.36510 | 4283 ft | 127 kts | 223° |
| 2026-05-08 07:44 | 14.87443 | 120.35844 | 4142 ft | 130 kts | 223° |
| 2026-05-08 07:44 | 14.86809 | 120.35150 | 3970 ft | 134 kts | 221° |
| 2026-05-08 07:44 | 14.86167 | 120.34459 | 3768 ft | 131 kts | 220° |
| 2026-05-08 07:44 | 14.85540 | 120.33777 | 3589 ft | 133 kts | 222° |
| 2026-05-08 07:45 | 14.84899 | 120.33082 | 3408 ft | 134 kts | 223° |
| 2026-05-08 07:45 | 14.84258 | 120.32385 | 3229 ft | 133 kts | 221° |
| 2026-05-08 07:45 | 14.83626 | 120.31655 | 2783 ft | 147 kts | 242° |
| 2026-05-08 07:45 | 14.82989 | 120.30753 | 2132 ft | 165 kts | 233° |
| 2026-05-08 07:46 | 14.82351 | 120.29877 | 1975 ft | 156 kts | 232° |
| 2026-05-08 07:46 | 14.81675 | 120.28912 | 1557 ft | 162 kts | 238° |
| 2026-05-08 07:46 | 14.81308 | 120.27852 | 1286 ft | 162 kts | 257° |
| 2026-05-08 07:46 | 14.81096 | 120.26778 | 1213 ft | 146 kts | 259° |
| 2026-05-08 07:47 | 14.80873 | 120.25786 | 1138 ft | 136 kts | 251° |
| 2026-05-08 07:47 | 14.80592 | 120.24922 | 1142 ft | 109 kts | 249° |
| 2026-05-08 07:47 | 14.80315 | 120.24188 | 883 ft | 111 kts | 248° |
| 2026-05-08 07:47 | 14.80048 | 120.23473 | 716 ft | 104 kts | 249° |
| 2026-05-08 07:48 | 14.79736 | 120.22804 | 587 ft | 103 kts | 229° |
| 2026-05-08 07:48 | 14.79211 | 120.22592 | 620 ft | 79 kts | 154° |
| 2026-05-08 07:48 | 14.78645 | 120.22748 | 590 ft | 89 kts | 156° |
| 2026-05-08 07:48 | 14.78066 | 120.22942 | 560 ft | 84 kts | 135° |
| 2026-05-08 07:49 | 14.77879 | 120.23365 | 382 ft | 66 kts | 50° |
| 2026-05-08 07:49 | 14.77874 | 120.23447 | 952 ft | 24 kts | 155° |
| 2026-05-08 07:49 | 14.77723 | 120.23677 | 428 ft | 0 kts | 355° |
| 2026-05-08 07:49 | 14.78443 | 120.23682 | 1091 ft | 102 kts | 26° |
| 2026-05-08 07:50 | 14.78614 | 120.24278 | 647 ft | 93 kts | 106° |
| 2026-05-08 07:50 | 14.78564 | 120.24879 | 417 ft | 80 kts | 75° |
| 2026-05-08 07:50 | 14.78771 | 120.25391 | 264 ft | 74 kts | 71° |
| 2026-05-08 07:50 | 14.78947 | 120.25876 | 93 ft | 73 kts | 79° |
| 2026-05-08 07:51 | 14.79109 | 120.26308 | 31 ft | 52 kts | 76° |
| 2026-05-08 07:51 | 14.79222 | 120.26587 | 30 ft | 29 kts | 68° |
| 2026-05-08 07:51 | 14.79281 | 120.26734 | 28 ft | 20 kts | 68° |
| 2026-05-08 07:51 | 14.79330 | 120.26863 | 28 ft | 19 kts | 76° |
| 2026-05-08 07:52 | 14.79266 | 120.26944 | 27 ft | 7 kts | 156° |
| 2026-05-08 07:52 | 14.79205 | 120.26916 | 27 ft | 15 kts | 247° |
| 2026-05-08 07:52 | 14.79154 | 120.26790 | 27 ft | 22 kts | 248° |
| 2026-05-08 07:52 | 14.79087 | 120.26624 | 28 ft | 27 kts | 247° |
| 2026-05-08 07:53 | 14.79017 | 120.26449 | 28 ft | 24 kts | 245° |
| 2026-05-08 07:53 | 14.78954 | 120.26293 | 28 ft | 25 kts | 248° |
| 2026-05-08 07:53 | 14.78915 | 120.26126 | 28 ft | 14 kts | 290° |
| 2026-05-08 07:53 | 14.78918 | 120.26118 | 28 ft | 0 kts | 292° |
| 2026-05-08 07:55 | 14.78919 | 120.26116 | 28 ft | 1 kts | 292° |
| 2026-05-08 07:55 | 14.78931 | 120.26081 | 28 ft | 9 kts | 289° |
| 2026-05-08 07:55 | 14.78995 | 120.26028 | 30 ft | 15 kts | 35° |
| 2026-05-08 07:55 | 14.79105 | 120.26298 | 31 ft | 71 kts | 68° |
| 2026-05-08 07:56 | 14.79334 | 120.26807 | 264 ft | 78 kts | 68° |
| 2026-05-08 07:56 | 14.79509 | 120.27289 | 716 ft | 63 kts | 94° |
| 2026-05-08 07:56 | 14.79378 | 120.27764 | 1123 ft | 69 kts | 108° |
| 2026-05-08 07:56 | 14.79065 | 120.28125 | 1382 ft | 80 kts | 160° |
| 2026-05-08 07:57 | 14.78521 | 120.28206 | 1797 ft | 82 kts | 171° |
| 2026-05-08 07:57 | 14.77969 | 120.28333 | 2141 ft | 81 kts | 142° |
| 2026-05-08 07:57 | 14.77419 | 120.28467 | 2406 ft | 88 kts | 184° |
| 2026-05-08 07:57 | 14.76810 | 120.28445 | 2682 ft | 87 kts | 176° |
| 2026-05-08 07:58 | 14.76182 | 120.28443 | 3014 ft | 92 kts | 175° |
| 2026-05-08 07:58 | 14.75549 | 120.28423 | 3406 ft | 92 kts | 175° |
| 2026-05-08 07:58 | 14.74818 | 120.28371 | 3524 ft | 123 kts | 178° |
| 2026-05-08 07:58 | 14.73869 | 120.28333 | 3565 ft | 148 kts | 176° |
| 2026-05-08 07:59 | 14.72767 | 120.28308 | 3528 ft | 166 kts | 177° |
| 2026-05-08 07:59 | 14.71574 | 120.28285 | 3516 ft | 175 kts | 175° |
| 2026-05-08 07:59 | 14.70338 | 120.28258 | 3512 ft | 179 kts | 177° |
| 2026-05-08 07:59 | 14.69085 | 120.28236 | 3511 ft | 179 kts | 176° |
| 2026-05-08 08:00 | 14.67844 | 120.28216 | 3507 ft | 174 kts | 176° |
| 2026-05-08 08:00 | 14.66695 | 120.28192 | 3500 ft | 157 kts | 177° |
| 2026-05-08 08:00 | 14.65657 | 120.28167 | 3489 ft | 145 kts | 177° |
| 2026-05-08 08:00 | 14.64682 | 120.28146 | 3492 ft | 135 kts | 176° |
| 2026-05-08 08:01 | 14.63760 | 120.28127 | 3490 ft | 130 kts | 176° |
| 2026-05-08 08:01 | 14.62874 | 120.28095 | 3488 ft | 125 kts | 176° |
| 2026-05-08 08:01 | 14.62008 | 120.28060 | 3491 ft | 124 kts | 176° |
| 2026-05-08 08:01 | 14.61149 | 120.28025 | 3490 ft | 123 kts | 176° |
| 2026-05-08 08:02 | 14.60294 | 120.27999 | 3494 ft | 122 kts | 175° |
| 2026-05-08 08:02 | 14.59447 | 120.28020 | 3487 ft | 121 kts | 173° |
| 2026-05-08 08:02 | 14.58609 | 120.28048 | 3490 ft | 120 kts | 173° |
| 2026-05-08 08:02 | 14.57899 | 120.28362 | 3492 ft | 112 kts | 125° |
| 2026-05-08 08:03 | 14.57420 | 120.29021 | 3504 ft | 120 kts | 125° |
| 2026-05-08 08:03 | 14.56891 | 120.29707 | 3509 ft | 123 kts | 125° |
| 2026-05-08 08:03 | 14.56359 | 120.30389 | 3505 ft | 121 kts | 125° |
| 2026-05-08 08:03 | 14.55832 | 120.31053 | 3505 ft | 117 kts | 126° |
| 2026-05-08 08:04 | 14.55325 | 120.31696 | 3501 ft | 116 kts | 125° |
| 2026-05-08 08:04 | 14.54813 | 120.32347 | 3495 ft | 115 kts | 125° |
| 2026-05-08 08:04 | 14.54314 | 120.32981 | 3491 ft | 115 kts | 126° |
| 2026-05-08 08:04 | 14.53807 | 120.33634 | 3492 ft | 114 kts | 125° |
| 2026-05-08 08:05 | 14.53308 | 120.34275 | 3493 ft | 115 kts | 125° |
| 2026-05-08 08:05 | 14.52814 | 120.34908 | 3495 ft | 115 kts | 125° |
| 2026-05-08 08:05 | 14.52317 | 120.35550 | 3492 ft | 114 kts | 125° |
| 2026-05-08 08:05 | 14.51815 | 120.36188 | 3492 ft | 115 kts | 125° |
| 2026-05-08 08:06 | 14.51304 | 120.36830 | 3498 ft | 116 kts | 125° |
| 2026-05-08 08:06 | 14.50789 | 120.37478 | 3502 ft | 117 kts | 125° |
| 2026-05-08 08:06 | 14.50268 | 120.38134 | 3513 ft | 121 kts | 125° |
| 2026-05-08 08:06 | 14.49704 | 120.38836 | 3510 ft | 130 kts | 125° |
| 2026-05-08 08:07 | 14.49124 | 120.39573 | 3506 ft | 132 kts | 125° |
| 2026-05-08 08:07 | 14.48552 | 120.40316 | 3507 ft | 133 kts | 126° |
| 2026-05-08 08:07 | 14.47998 | 120.41056 | 3500 ft | 127 kts | 125° |
| 2026-05-08 08:07 | 14.47467 | 120.41764 | 3494 ft | 122 kts | 124° |
| 2026-05-08 08:08 | 14.46946 | 120.42461 | 3491 ft | 129 kts | 125° |
| 2026-05-08 08:08 | 14.46370 | 120.43240 | 3500 ft | 140 kts | 126° |
| 2026-05-08 08:08 | 14.45771 | 120.44037 | 3508 ft | 141 kts | 124° |
| 2026-05-08 08:08 | 14.45152 | 120.44836 | 3508 ft | 146 kts | 125° |
| 2026-05-08 08:09 | 14.44508 | 120.45667 | 3508 ft | 149 kts | 125° |
| 2026-05-08 08:09 | 14.43852 | 120.46510 | 3504 ft | 150 kts | 125° |
| 2026-05-08 08:09 | 14.43195 | 120.47353 | 3499 ft | 150 kts | 126° |
| 2026-05-08 08:09 | 14.42550 | 120.48197 | 3489 ft | 149 kts | 125° |
| 2026-05-08 08:10 | 14.41904 | 120.49026 | 3498 ft | 148 kts | 125° |
| 2026-05-08 08:10 | 14.41266 | 120.49856 | 3494 ft | 147 kts | 125° |
| 2026-05-08 08:10 | 14.40677 | 120.50704 | 3492 ft | 144 kts | 115° |
| 2026-05-08 08:10 | 14.40265 | 120.51635 | 3492 ft | 142 kts | 111° |
| 2026-05-08 08:11 | 14.39862 | 120.52555 | 3489 ft | 140 kts | 111° |
| 2026-05-08 08:11 | 14.39456 | 120.53464 | 3490 ft | 139 kts | 111° |
| 2026-05-08 08:11 | 14.39050 | 120.54368 | 3484 ft | 139 kts | 112° |
| 2026-05-08 08:11 | 14.38655 | 120.55274 | 3489 ft | 138 kts | 111° |
| 2026-05-08 08:12 | 14.38268 | 120.56180 | 3485 ft | 138 kts | 111° |
| 2026-05-08 08:12 | 14.37887 | 120.57068 | 3495 ft | 134 kts | 110° |
| 2026-05-08 08:12 | 14.37493 | 120.57951 | 3489 ft | 136 kts | 111° |
| 2026-05-08 08:12 | 14.37156 | 120.58867 | 3473 ft | 138 kts | 109° |
| 2026-05-08 08:13 | 14.36874 | 120.59742 | 3345 ft | 122 kts | 90° |
| 2026-05-08 08:13 | 14.37054 | 120.60541 | 3203 ft | 115 kts | 63° |
| 2026-05-08 08:13 | 14.37467 | 120.61221 | 3069 ft | 109 kts | 61° |
| 2026-05-08 08:13 | 14.37845 | 120.61876 | 2931 ft | 103 kts | 62° |
| 2026-05-08 08:14 | 14.38219 | 120.62491 | 2794 ft | 100 kts | 61° |
| 2026-05-08 08:14 | 14.38593 | 120.63081 | 2656 ft | 96 kts | 62° |
| 2026-05-08 08:14 | 14.38982 | 120.63686 | 2538 ft | 109 kts | 59° |
| 2026-05-08 08:14 | 14.39396 | 120.64395 | 2441 ft | 120 kts | 61° |
| 2026-05-08 08:15 | 14.39839 | 120.65153 | 2366 ft | 127 kts | 62° |
| 2026-05-08 08:15 | 14.40317 | 120.65946 | 2258 ft | 132 kts | 61° |
| 2026-05-08 08:15 | 14.40810 | 120.66750 | 2151 ft | 133 kts | 61° |
| 2026-05-08 08:15 | 14.41297 | 120.67567 | 2049 ft | 135 kts | 61° |
| 2026-05-08 08:16 | 14.41783 | 120.68410 | 1938 ft | 138 kts | 61° |
| 2026-05-08 08:16 | 14.42282 | 120.69265 | 1825 ft | 140 kts | 62° |
| 2026-05-08 08:16 | 14.42795 | 120.70118 | 1711 ft | 141 kts | 61° |
| 2026-05-08 08:16 | 14.43307 | 120.70990 | 1595 ft | 143 kts | 61° |
| 2026-05-08 08:17 | 14.43815 | 120.71857 | 1509 ft | 142 kts | 62° |
| 2026-05-08 08:17 | 14.44338 | 120.72700 | 1504 ft | 136 kts | 60° |
| 2026-05-08 08:17 | 14.44843 | 120.73516 | 1485 ft | 135 kts | 60° |
| 2026-05-08 08:17 | 14.45360 | 120.74321 | 1495 ft | 137 kts | 61° |
| 2026-05-08 08:18 | 14.45905 | 120.75161 | 1503 ft | 143 kts | 59° |
| 2026-05-08 08:18 | 14.46434 | 120.76036 | 1507 ft | 145 kts | 61° |
| 2026-05-08 08:18 | 14.46970 | 120.76930 | 1504 ft | 147 kts | 62° |
| 2026-05-08 08:18 | 14.47523 | 120.77826 | 1502 ft | 148 kts | 60° |
| 2026-05-08 08:19 | 14.48069 | 120.78725 | 1502 ft | 146 kts | 61° |
| 2026-05-08 08:19 | 14.48610 | 120.79613 | 1506 ft | 147 kts | 61° |
| 2026-05-08 08:19 | 14.49172 | 120.80493 | 1502 ft | 147 kts | 59° |
| 2026-05-08 08:19 | 14.49703 | 120.81375 | 1492 ft | 146 kts | 62° |
| 2026-05-08 08:20 | 14.50243 | 120.82262 | 1501 ft | 147 kts | 61° |
| 2026-05-08 08:20 | 14.50796 | 120.83156 | 1502 ft | 148 kts | 61° |
| 2026-05-08 08:20 | 14.51310 | 120.84066 | 1493 ft | 146 kts | 64° |
| 2026-05-08 08:20 | 14.51817 | 120.84978 | 1491 ft | 147 kts | 64° |
| 2026-05-08 08:21 | 14.52298 | 120.85907 | 1501 ft | 147 kts | 65° |
| 2026-05-08 08:21 | 14.52793 | 120.86827 | 1499 ft | 147 kts | 64° |
| 2026-05-08 08:21 | 14.53289 | 120.87747 | 1498 ft | 146 kts | 65° |
| 2026-05-08 08:21 | 14.53772 | 120.88664 | 1494 ft | 144 kts | 66° |
| 2026-05-08 08:22 | 14.54234 | 120.89574 | 1491 ft | 144 kts | 71° |
| 2026-05-08 08:22 | 14.54571 | 120.90556 | 1491 ft | 146 kts | 74° |
| 2026-05-08 08:22 | 14.54905 | 120.91534 | 1498 ft | 144 kts | 73° |
| 2026-05-08 08:22 | 14.55234 | 120.92500 | 1502 ft | 142 kts | 73° |
| 2026-05-08 08:23 | 14.55560 | 120.93446 | 1498 ft | 141 kts | 73° |
| 2026-05-08 08:23 | 14.56111 | 120.94274 | 1493 ft | 143 kts | 37° |
| 2026-05-08 08:23 | 14.57011 | 120.94535 | 1488 ft | 124 kts | 22° |
| 2026-05-08 08:23 | 14.57555 | 120.95014 | 1476 ft | 91 kts | 84° |
| 2026-05-08 08:24 | 14.57270 | 120.95486 | 1401 ft | 81 kts | 141° |
| 2026-05-08 08:24 | 14.56861 | 120.95871 | 1398 ft | 79 kts | 131° |
| 2026-05-08 08:24 | 14.56440 | 120.96271 | 1493 ft | 84 kts | 132° |
| 2026-05-08 08:24 | 14.56019 | 120.96696 | 1529 ft | 86 kts | 131° |
| 2026-05-08 08:25 | 14.55564 | 120.97111 | 1528 ft | 88 kts | 133° |
| 2026-05-08 08:25 | 14.55097 | 120.97532 | 1514 ft | 92 kts | 131° |
| 2026-05-08 08:25 | 14.54638 | 120.98030 | 1375 ft | 95 kts | 129° |
| 2026-05-08 08:25 | 14.54155 | 120.98489 | 1150 ft | 99 kts | 139° |
| 2026-05-08 08:26 | 14.53675 | 120.99044 | 788 ft | 102 kts | 149° |
| 2026-05-08 08:26 | 14.53198 | 120.99511 | 595 ft | 87 kts | 130° |
| 2026-05-08 08:26 | 14.52810 | 120.99929 | 363 ft | 74 kts | 131° |
| 2026-05-08 08:26 | 14.52468 | 121.00294 | 137 ft | 69 kts | 132° |
| 2026-05-08 08:27 | 14.52167 | 121.00606 | 61 ft | 51 kts | 137° |
| 2026-05-08 08:27 | 14.51981 | 121.00798 | 62 ft | 27 kts | 134° |
| 2026-05-08 08:27 | 14.51874 | 121.00908 | 64 ft | 20 kts | 134° |
| 2026-05-08 08:27 | 14.51875 | 121.01008 | 65 ft | 17 kts | 41° |